Buoy 41936

sailwx.info

Track history (hours):
 
Tides and Currents Weather Stations Pressure Air Temp Water Temp Dewpoint Dewpoint Depression Visibility Wind Speed Wind Dir Waves Ship Positions

Drifting buoy 41936

Last reported at 2016-Jul-28 23:00 UTC. Time now 2016-Jul-29 00:10 UTC.
Position N 38°32' W 053°40'.

Barometer 1019.9 mb

Date/timePositionNaut miles runAvg speedWind from/ knotsBaromVisibWave heightAir tempDewpointWater temp
2016-Jul-28 23:00N 38°32' W 053°40'1 0.7 1019.9
2016-Jul-28 22:00N 38°32' W 053°40'2 1.6 1019.6
2016-Jul-28 21:00N 38°31' W 053°42'1 1.1 1019.1
2016-Jul-28 20:00N 38°30' W 053°43'4 2.1 1019.0
2016-Jul-28 18:00N 38°27' W 053°47'2 0.8 1018.1
2016-Jul-28 15:00N 38°25' W 053°49'0 0.0 1019.2
2016-Jul-28 14:00N 38°25' W 053°49'1 1.1 1018.6
2016-Jul-28 13:00N 38°25' W 053°50'2 2.0 1018.7
2016-Jul-28 12:00N 38°23' W 053°52'1 0.7 1018.4
2016-Jul-28 11:00N 38°23' W 053°52'2 1.6 1017.9
2016-Jul-28 10:00N 38°22' W 053°54'2 2.3 1017.1
2016-Jul-28 09:00N 38°19' W 053°54'0 0.0 1016.6
2016-Jul-28 08:00N 38°19' W 053°54'10 1.5 1016.0
2016-Jul-28 01:00N 38°10' W 053°60'3 1.3 1016.2
2016-Jul-27 23:00N 38°07' W 053°59'2 1.9 1015.1
2016-Jul-27 22:00N 38°06' W 054°01'3 3.3 1015.0
2016-Jul-27 21:00N 38°03' W 054°02'0 0.0 1015.1
2016-Jul-27 20:00N 38°03' W 054°02'2 0.9 1014.5
2016-Jul-27 18:00N 38°01' W 054°03'1 0.3 1014.7
2016-Jul-27 16:00N 38°00' W 054°03'4 1.3 1014.9
2016-Jul-27 13:00N 37°57' W 054°03'2 1.7 1015.4
2016-Jul-27 12:00N 37°55' W 054°03'0 0.1 1015.0
2016-Jul-27 11:00N 37°55' W 054°03'2 1.7 1015.5
2016-Jul-27 10:00N 37°53' W 054°02'2 1.1 1015.0
2016-Jul-27 08:00N 37°51' W 054°01'1 1.1 1014.4
2016-Jul-27 07:00N 37°50' W 054°02'4 3.9 1014.6
2016-Jul-27 06:00N 37°46' W 054°00'1 0.2 1014.9
2016-Jul-27 01:00N 37°45' W 054°00'1 0.3 1015.6
2016-Jul-26 23:00N 37°45' W 053°60'0 0.0 1014.8
2016-Jul-26 22:00N 37°45' W 053°60'1 0.7 1014.5
2016-Jul-26 21:00N 37°44' W 053°59'2 1.7 1014.4
2016-Jul-26 20:00N 37°43' W 054°00'1 0.4 1014.1
2016-Jul-26 18:00N 37°42' W 054°00'0 0.0 1014.2
2016-Jul-26 17:00N 37°42' W 054°00'1 0.2 1014.1
2016-Jul-26 14:00N 37°41' W 053°60'0 0.2 1014.3
2016-Jul-26 12:00N 37°41' W 053°59'1 0.7 1013.3
2016-Jul-26 11:00N 37°40' W 053°60'1 0.7 1014.1
2016-Jul-26 10:00N 37°41' W 053°59'1 0.5 1014.4
2016-Jul-26 09:00N 37°40' W 053°59'0 0.0 1013.6
2016-Jul-26 08:00N 37°40' W 053°59'2 2.1 1013.0
2016-Jul-26 07:00N 37°38' W 053°58'2 0.9 1013.1
2016-Jul-26 05:00N 37°38' W 053°56'2 1.8 1013.3
2016-Jul-26 04:00N 37°38' W 053°58'2 0.4 1013.7
2016-Jul-26 00:00N 37°37' W 053°56'0 0.4 1014.9
2016-Jul-25 23:00N 37°37' W 053°56'0 0.0 1014.6
2016-Jul-25 22:00N 37°37' W 053°56'1 0.3 1014.4
2016-Jul-25 19:00N 37°36' W 053°57'1 0.9 1014.8
2016-Jul-25 18:00N 37°36' W 053°58'1 1.1 1014.6
2016-Jul-25 17:00N 37°34' W 053°58'1 0.2 1015.3
2016-Jul-25 14:00N 37°34' W 053°57'0 0.2 1016.0
2016-Jul-25 12:00N 37°34' W 053°58'1 0.5 1014.7
2016-Jul-25 11:00N 37°34' W 053°57'0 0.5 1015.4
2016-Jul-25 10:00N 37°34' W 053°57'0 0.0 1015.8
2016-Jul-25 08:00N 37°34' W 053°57'0 0.4 1015.3
2016-Jul-25 07:00N 37°34' W 053°58'0 0.0 1015.2
2016-Jul-25 06:00N 37°34' W 053°58'2 2.3 1015.0
2016-Jul-25 05:00N 37°32' W 053°58'0 0.0 1015.7
2016-Jul-25 02:00N 37°32' W 053°58'1 0.4 1017.3
2016-Jul-25 00:00N 37°32' W 053°58'0 0.0 1018.3
2016-Jul-24 23:00N 37°32' W 053°58'1 0.7 1018.2
2016-Jul-24 21:00N 37°31' W 053°58'0 0.4 1018.5
2016-Jul-24 20:00N 37°31' W 053°58'0 0.5 1018.7
2016-Jul-24 19:00N 37°30' W 053°59'0 0.2 1019.2
2016-Jul-24 17:00N 37°30' W 053°59'0 0.4 1019.5
2016-Jul-24 16:00N 37°30' W 053°59'1 0.3 1019.7
2016-Jul-24 14:00N 37°30' W 053°59'1 0.9 1020.2
2016-Jul-24 13:00N 37°31' W 053°59'0 0.4 1020.0
2016-Jul-24 12:00N 37°31' W 053°60'1 0.3 1020.0
2016-Jul-24 10:00N 37°31' W 054°00'1 0.7 1020.5
2016-Jul-24 09:00N 37°32' W 054°01'0 0.2 1020.1
2016-Jul-24 08:00N 37°32' W 054°01'2 2.3 1020.0
2016-Jul-24 07:00N 37°32' W 054°04'3 1.7 1019.9
2016-Jul-24 05:00N 37°29' W 054°05'1 0.1 1020.1
2016-Jul-24 00:00N 37°29' W 054°06'2 1.0 1020.6
2016-Jul-23 22:00N 37°28' W 054°03'0 0.4 1019.6
2016-Jul-23 21:00N 37°28' W 054°03'0 0.4 1019.8
2016-Jul-23 20:00N 37°28' W 054°03'2 2.1 1019.9
2016-Jul-23 19:00N 37°30' W 054°01'0 0.0 1019.7
2016-Jul-23 18:00N 37°30' W 054°01'4 3.9 1019.6
2016-Jul-23 17:00N 37°33' W 054°04'4 3.9 1019.5
2016-Jul-23 16:00N 37°30' W 054°01'4 3.9 1019.2
2016-Jul-23 15:00N 37°33' W 054°04'1 0.4 1018.9
2016-Jul-23 13:00N 37°34' W 054°04'0 0.2 1018.3
2016-Jul-23 11:00N 37°34' W 054°04'1 0.7 1017.7
2016-Jul-23 10:00N 37°34' W 054°05'1 0.7 1017.0
2016-Jul-23 09:00N 37°33' W 054°06'1 0.7 1016.6
2016-Jul-23 08:00N 37°33' W 054°06'1 1.4 1016.4
2016-Jul-23 07:00N 37°31' W 054°06'1 0.3 1015.9
2016-Jul-23 05:00N 37°32' W 054°06'7 1.7 1017.1
2016-Jul-23 01:00N 37°25' W 054°04'0 0.2 1018.3
2016-Jul-22 23:00N 37°25' W 054°04'1 1.3 1018.2
2016-Jul-22 22:00N 37°24' W 054°04'2 1.6 1017.9
2016-Jul-22 21:00N 37°22' W 054°04'0 0.2 1018.1
2016-Jul-22 20:00N 37°22' W 054°04'9 1.2 1018.4
2016-Jul-22 12:00N 37°13' W 054°04'0 0.0 1018.2
2016-Jul-22 11:00N 37°13' W 054°04'4 1.4 1018.2
2016-Jul-22 08:00N 37°09' W 054°02'3 2.9 1017.7
2016-Jul-22 07:00N 37°06' W 054°00'7 7.1 1018.0
2016-Jul-22 06:00N 36°60' W 053°58'2 0.4 1018.0
2016-Jul-22 01:00N 36°58' W 053°56'0 0.0 1018.9
2016-Jul-22 00:00N 36°58' W 053°56'1 0.6 1018.5
2016-Jul-21 23:00N 36°58' W 053°57'2 2.3 1018.0
2016-Jul-21 22:00N 36°57' W 053°55'1 1.0 1018.2
2016-Jul-21 21:00N 36°56' W 053°54'1 0.8 1018.2
2016-Jul-21 20:00N 36°55' W 053°54'0 0.1 1018.3
2016-Jul-21 19:00N 36°55' W 053°54'14 2.0 1018.5
2016-Jul-21 12:00N 36°42' W 053°51'2 1.1 1019.8
2016-Jul-21 10:00N 36°39' W 053°51'6 2.8 1020.3
2016-Jul-21 08:00N 36°34' W 053°49'0 0.0 1020.3
2016-Jul-21 07:00N 36°34' W 053°49'8 8.3 1020.3
2016-Jul-21 06:00N 36°26' W 053°47'1 0.3 1020.6
2016-Jul-21 01:00N 36°25' W 053°47'4 1.5 1022.2
2016-Jul-20 22:00N 36°20' W 053°45'5 2.5 1022.1
2016-Jul-20 20:00N 36°15' W 053°45'1 0.4 1022.9
2016-Jul-20 16:00N 36°14' W 053°45'3 1.6 1024.2
2016-Jul-20 14:00N 36°11' W 053°47'4 1.2 1024.6
2016-Jul-20 11:00N 36°07' W 053°48'2 2.3 1024.1
2016-Jul-20 10:00N 36°05' W 053°48'3 1.5 1023.9
2016-Jul-20 08:00N 36°02' W 053°50'0 0.1 1023.9
2016-Jul-20 06:00N 36°02' W 053°50'6 1.5 1024.0
2016-Jul-20 02:00N 35°57' W 053°53'1 0.6 1025.6
2016-Jul-20 01:00N 35°57' W 053°53'1 0.6 1025.7
2016-Jul-20 00:00N 35°56' W 053°54'3 1.3 1025.7
2016-Jul-19 22:00N 35°55' W 053°57'1 0.9 1025.1
2016-Jul-19 21:00N 35°55' W 053°58'3 1.0 1025.1
2016-Jul-19 18:00N 35°54' W 054°01'3 3.4 1025.4
2016-Jul-19 17:00N 35°52' W 054°05'1 0.9 1025.5
2016-Jul-19 16:00N 35°53' W 054°06'6 3.0 1025.9
2016-Jul-19 14:00N 35°50' W 054°12'1 1.2 1026.4
2016-Jul-19 13:00N 35°49' W 054°13'3 1.6 1026.1
2016-Jul-19 11:00N 35°48' W 054°17'3 2.9 1025.9
2016-Jul-19 10:00N 35°46' W 054°20'1 1.2 1025.7
2016-Jul-19 09:00N 35°45' W 054°21'3 3.4 1025.4
2016-Jul-19 08:00N 35°43' W 054°24'13 1.9 1025.1
2016-Jul-19 01:00N 35°39' W 054°40'2 2.4 1026.5
2016-Jul-19 00:00N 35°38' W 054°43'3 2.7 1026.3
2016-Jul-18 23:00N 35°38' W 054°46'   1025.9
Track history (hours):
 
Tides and Currents Weather Stations Pressure Air Temp Water Temp Dewpoint Dewpoint Depression Visibility Wind Speed Wind Dir Waves Ship Positions

Drifting buoy 41936

Last reported at 2016-Jul-28 23:00 UTC. Time now 2016-Jul-29 00:10 UTC.
Position N 38°32' W 053°40'.

Barometer 1019.9 mb

Date/timePositionNaut miles runAvg speedWind from/ knotsBaromVisibWave heightAir tempDewpointWater temp
2016-Jul-28 23:00N 38°32' W 053°40'1 0.7 1019.9
2016-Jul-28 22:00N 38°32' W 053°40'2 1.6 1019.6
2016-Jul-28 21:00N 38°31' W 053°42'1 1.1 1019.1
2016-Jul-28 20:00N 38°30' W 053°43'4 2.1 1019.0
2016-Jul-28 18:00N 38°27' W 053°47'2 0.8 1018.1
2016-Jul-28 15:00N 38°25' W 053°49'0 0.0 1019.2
2016-Jul-28 14:00N 38°25' W 053°49'1 1.1 1018.6
2016-Jul-28 13:00N 38°25' W 053°50'2 2.0 1018.7
2016-Jul-28 12:00N 38°23' W 053°52'1 0.7 1018.4
2016-Jul-28 11:00N 38°23' W 053°52'2 1.6 1017.9
2016-Jul-28 10:00N 38°22' W 053°54'2 2.3 1017.1
2016-Jul-28 09:00N 38°19' W 053°54'0 0.0 1016.6
2016-Jul-28 08:00N 38°19' W 053°54'10 1.5 1016.0
2016-Jul-28 01:00N 38°10' W 053°60'3 1.3 1016.2
2016-Jul-27 23:00N 38°07' W 053°59'2 1.9 1015.1
2016-Jul-27 22:00N 38°06' W 054°01'3 3.3 1015.0
2016-Jul-27 21:00N 38°03' W 054°02'0 0.0 1015.1
2016-Jul-27 20:00N 38°03' W 054°02'2 0.9 1014.5
2016-Jul-27 18:00N 38°01' W 054°03'1 0.3 1014.7
2016-Jul-27 16:00N 38°00' W 054°03'4 1.3 1014.9
2016-Jul-27 13:00N 37°57' W 054°03'2 1.7 1015.4
2016-Jul-27 12:00N 37°55' W 054°03'0 0.1 1015.0
2016-Jul-27 11:00N 37°55' W 054°03'2 1.7 1015.5
2016-Jul-27 10:00N 37°53' W 054°02'2 1.1 1015.0
2016-Jul-27 08:00N 37°51' W 054°01'1 1.1 1014.4
2016-Jul-27 07:00N 37°50' W 054°02'4 3.9 1014.6
2016-Jul-27 06:00N 37°46' W 054°00'1 0.2 1014.9
2016-Jul-27 01:00N 37°45' W 054°00'1 0.3 1015.6
2016-Jul-26 23:00N 37°45' W 053°60'0 0.0 1014.8
2016-Jul-26 22:00N 37°45' W 053°60'1 0.7 1014.5
2016-Jul-26 21:00N 37°44' W 053°59'2 1.7 1014.4
2016-Jul-26 20:00N 37°43' W 054°00'1 0.4 1014.1
2016-Jul-26 18:00N 37°42' W 054°00'0 0.0 1014.2
2016-Jul-26 17:00N 37°42' W 054°00'1 0.2 1014.1
2016-Jul-26 14:00N 37°41' W 053°60'0 0.2 1014.3
2016-Jul-26 12:00N 37°41' W 053°59'1 0.7 1013.3
2016-Jul-26 11:00N 37°40' W 053°60'1 0.7 1014.1
2016-Jul-26 10:00N 37°41' W 053°59'1 0.5 1014.4
2016-Jul-26 09:00N 37°40' W 053°59'0 0.0 1013.6
2016-Jul-26 08:00N 37°40' W 053°59'2 2.1 1013.0
2016-Jul-26 07:00N 37°38' W 053°58'2 0.9 1013.1
2016-Jul-26 05:00N 37°38' W 053°56'2 1.8 1013.3
2016-Jul-26 04:00N 37°38' W 053°58'2 0.4 1013.7
2016-Jul-26 00:00N 37°37' W 053°56'0 0.4 1014.9
2016-Jul-25 23:00N 37°37' W 053°56'0 0.0 1014.6
2016-Jul-25 22:00N 37°37' W 053°56'1 0.3 1014.4
2016-Jul-25 19:00N 37°36' W 053°57'1 0.9 1014.8
2016-Jul-25 18:00N 37°36' W 053°58'1 1.1 1014.6
2016-Jul-25 17:00N 37°34' W 053°58'1 0.2 1015.3
2016-Jul-25 14:00N 37°34' W 053°57'0 0.2 1016.0
2016-Jul-25 12:00N 37°34' W 053°58'1 0.5 1014.7
2016-Jul-25 11:00N 37°34' W 053°57'0 0.5 1015.4
2016-Jul-25 10:00N 37°34' W 053°57'0 0.0 1015.8
2016-Jul-25 08:00N 37°34' W 053°57'0 0.4 1015.3
2016-Jul-25 07:00N 37°34' W 053°58'0 0.0 1015.2
2016-Jul-25 06:00N 37°34' W 053°58'2 2.3 1015.0
2016-Jul-25 05:00N 37°32' W 053°58'0 0.0 1015.7
2016-Jul-25 02:00N 37°32' W 053°58'1 0.4 1017.3
2016-Jul-25 00:00N 37°32' W 053°58'0 0.0 1018.3
2016-Jul-24 23:00N 37°32' W 053°58'1 0.7 1018.2
2016-Jul-24 21:00N 37°31' W 053°58'0 0.4 1018.5
2016-Jul-24 20:00N 37°31' W 053°58'0 0.5 1018.7
2016-Jul-24 19:00N 37°30' W 053°59'0 0.2 1019.2
2016-Jul-24 17:00N 37°30' W 053°59'0 0.4 1019.5
2016-Jul-24 16:00N 37°30' W 053°59'1 0.3 1019.7
2016-Jul-24 14:00N 37°30' W 053°59'1 0.9 1020.2
2016-Jul-24 13:00N 37°31' W 053°59'0 0.4 1020.0
2016-Jul-24 12:00N 37°31' W 053°60'1 0.3 1020.0
2016-Jul-24 10:00N 37°31' W 054°00'1 0.7 1020.5
2016-Jul-24 09:00N 37°32' W 054°01'0 0.2 1020.1
2016-Jul-24 08:00N 37°32' W 054°01'2 2.3 1020.0
2016-Jul-24 07:00N 37°32' W 054°04'3 1.7 1019.9
2016-Jul-24 05:00N 37°29' W 054°05'1 0.1 1020.1
2016-Jul-24 00:00N 37°29' W 054°06'2 1.0 1020.6
2016-Jul-23 22:00N 37°28' W 054°03'0 0.4 1019.6
2016-Jul-23 21:00N 37°28' W 054°03'0 0.4 1019.8
2016-Jul-23 20:00N 37°28' W 054°03'2 2.1 1019.9
2016-Jul-23 19:00N 37°30' W 054°01'0 0.0 1019.7
2016-Jul-23 18:00N 37°30' W 054°01'4 3.9 1019.6
2016-Jul-23 17:00N 37°33' W 054°04'4 3.9 1019.5
2016-Jul-23 16:00N 37°30' W 054°01'4 3.9 1019.2
2016-Jul-23 15:00N 37°33' W 054°04'1 0.4 1018.9
2016-Jul-23 13:00N 37°34' W 054°04'0 0.2 1018.3
2016-Jul-23 11:00N 37°34' W 054°04'1 0.7 1017.7
2016-Jul-23 10:00N 37°34' W 054°05'1 0.7 1017.0
2016-Jul-23 09:00N 37°33' W 054°06'1 0.7 1016.6
2016-Jul-23 08:00N 37°33' W 054°06'1 1.4 1016.4
2016-Jul-23 07:00N 37°31' W 054°06'1 0.3 1015.9
2016-Jul-23 05:00N 37°32' W 054°06'7 1.7 1017.1
2016-Jul-23 01:00N 37°25' W 054°04'0 0.2 1018.3
2016-Jul-22 23:00N 37°25' W 054°04'1 1.3 1018.2
2016-Jul-22 22:00N 37°24' W 054°04'2 1.6 1017.9
2016-Jul-22 21:00N 37°22' W 054°04'0 0.2 1018.1
2016-Jul-22 20:00N 37°22' W 054°04'9 1.2 1018.4
2016-Jul-22 12:00N 37°13' W 054°04'0 0.0 1018.2
2016-Jul-22 11:00N 37°13' W 054°04'4 1.4 1018.2
2016-Jul-22 08:00N 37°09' W 054°02'3 2.9 1017.7
2016-Jul-22 07:00N 37°06' W 054°00'7 7.1 1018.0
2016-Jul-22 06:00N 36°60' W 053°58'2 0.4 1018.0
2016-Jul-22 01:00N 36°58' W 053°56'0 0.0 1018.9
2016-Jul-22 00:00N 36°58' W 053°56'1 0.6 1018.5
2016-Jul-21 23:00N 36°58' W 053°57'2 2.3 1018.0
2016-Jul-21 22:00N 36°57' W 053°55'1 1.0 1018.2
2016-Jul-21 21:00N 36°56' W 053°54'1 0.8 1018.2
2016-Jul-21 20:00N 36°55' W 053°54'0 0.1 1018.3
2016-Jul-21 19:00N 36°55' W 053°54'14 2.0 1018.5
2016-Jul-21 12:00N 36°42' W 053°51'2 1.1 1019.8
2016-Jul-21 10:00N 36°39' W 053°51'6 2.8 1020.3
2016-Jul-21 08:00N 36°34' W 053°49'0 0.0 1020.3
2016-Jul-21 07:00N 36°34' W 053°49'8 8.3 1020.3
2016-Jul-21 06:00N 36°26' W 053°47'1 0.3 1020.6
2016-Jul-21 01:00N 36°25' W 053°47'4 1.5 1022.2
2016-Jul-20 22:00N 36°20' W 053°45'5 2.5 1022.1
2016-Jul-20 20:00N 36°15' W 053°45'1 0.4 1022.9
2016-Jul-20 16:00N 36°14' W 053°45'3 1.6 1024.2
2016-Jul-20 14:00N 36°11' W 053°47'4 1.2 1024.6
2016-Jul-20 11:00N 36°07' W 053°48'2 2.3 1024.1
2016-Jul-20 10:00N 36°05' W 053°48'3 1.5 1023.9
2016-Jul-20 08:00N 36°02' W 053°50'0 0.1 1023.9
2016-Jul-20 06:00N 36°02' W 053°50'6 1.5 1024.0
2016-Jul-20 02:00N 35°57' W 053°53'1 0.6 1025.6
2016-Jul-20 01:00N 35°57' W 053°53'1 0.6 1025.7
2016-Jul-20 00:00N 35°56' W 053°54'3 1.3 1025.7
2016-Jul-19 22:00N 35°55' W 053°57'1 0.9 1025.1
2016-Jul-19 21:00N 35°55' W 053°58'3 1.0 1025.1
2016-Jul-19 18:00N 35°54' W 054°01'3 3.4 1025.4
2016-Jul-19 17:00N 35°52' W 054°05'1 0.9 1025.5
2016-Jul-19 16:00N 35°53' W 054°06'6 3.0 1025.9
2016-Jul-19 14:00N 35°50' W 054°12'1 1.2 1026.4
2016-Jul-19 13:00N 35°49' W 054°13'3 1.6 1026.1
2016-Jul-19 11:00N 35°48' W 054°17'3 2.9 1025.9
2016-Jul-19 10:00N 35°46' W 054°20'1 1.2 1025.7
2016-Jul-19 09:00N 35°45' W 054°21'3 3.4 1025.4
2016-Jul-19 08:00N 35°43' W 054°24'13 1.9 1025.1
2016-Jul-19 01:00N 35°39' W 054°40'2 2.4 1026.5
2016-Jul-19 00:00N 35°38' W 054°43'3 2.7 1026.3
2016-Jul-18 23:00N 35°38' W 054°46'   1025.9

Dump ship's entire track history